createdAt,value
2019-05-17T00:00:08.402Z,88.21
2019-05-17T00:02:37.647Z,88.37
2019-05-17T00:05:07.814Z,88.43
2019-05-17T00:07:36.995Z,88.51
2019-05-17T00:10:07.022Z,88.62
2019-05-17T00:12:36.778Z,88.77
2019-05-17T00:15:08.542Z,88.67
2019-05-17T00:17:37.776Z,88.75
2019-05-17T00:20:09.642Z,88.67
2019-05-17T00:22:38.099Z,88.80
2019-05-17T00:25:10.169Z,88.76
2019-05-17T00:27:37.874Z,88.80
2019-05-17T00:30:07.802Z,88.89
2019-05-17T00:32:36.872Z,88.95
2019-05-17T00:35:07.826Z,89.04
2019-05-17T00:37:37.291Z,89.23
2019-05-17T00:40:08.432Z,89.18
2019-05-17T00:42:37.390Z,89.38
2019-05-17T00:45:08.160Z,89.35
2019-05-17T00:47:37.510Z,89.33
2019-05-17T00:50:07.603Z,89.51
2019-05-17T00:52:37.162Z,89.40
2019-05-17T00:55:07.264Z,89.51
2019-05-17T00:57:36.967Z,89.40
2019-05-17T01:00:08.524Z,89.54
2019-05-17T01:02:37.395Z,89.58
2019-05-17T01:05:09.377Z,89.65
2019-05-17T01:07:37.828Z,89.77
2019-05-17T01:10:08.678Z,89.75
2019-05-17T01:12:37.189Z,89.75
2019-05-17T01:15:08.323Z,89.75
2019-05-17T01:17:36.785Z,89.62
2019-05-17T01:20:09.282Z,89.79
2019-05-17T01:22:37.806Z,89.79
2019-05-17T01:25:10.566Z,89.78
2019-05-17T01:27:39.271Z,89.78
2019-05-17T01:30:08.975Z,89.79
2019-05-17T01:32:37.692Z,89.81
2019-05-17T01:35:07.443Z,89.89
2019-05-17T01:37:37.101Z,89.81
2019-05-17T01:40:07.827Z,89.76
2019-05-17T01:42:37.498Z,89.91
2019-05-17T01:45:07.744Z,90.00
2019-05-17T01:47:36.815Z,89.82
2019-05-17T01:50:10.215Z,89.98
2019-05-17T01:52:38.947Z,89.97
2019-05-17T01:55:08.321Z,90.01
2019-05-17T01:57:37.254Z,90.04
2019-05-17T02:00:10.235Z,90.11
2019-05-17T02:02:41.154Z,90.23
2019-05-17T02:05:10.724Z,90.24
2019-05-17T02:07:39.207Z,90.22
2019-05-17T02:10:08.581Z,90.33
2019-05-17T02:12:37.328Z,90.52
2019-05-17T02:15:10.232Z,90.57
2019-05-17T02:17:38.960Z,90.53
2019-05-17T02:20:09.221Z,90.47
2019-05-17T02:22:37.677Z,90.50
2019-05-17T02:25:09.174Z,90.54
2019-05-17T02:27:43.937Z,90.54
2019-05-17T02:30:13.635Z,90.60
2019-05-17T02:32:43.086Z,90.53
2019-05-17T02:35:14.340Z,90.44
2019-05-17T02:37:43.579Z,90.55
2019-05-17T02:40:14.404Z,90.54
2019-05-17T02:42:43.751Z,90.54
2019-05-17T02:45:13.514Z,90.63
2019-05-17T02:47:43.697Z,90.69
2019-05-17T02:50:13.997Z,90.69
2019-05-17T02:52:44.116Z,90.66
2019-05-17T02:55:13.554Z,90.63
2019-05-17T02:57:43.328Z,90.64
2019-05-17T03:00:14.040Z,90.63
2019-05-17T03:02:43.839Z,90.66
2019-05-17T03:05:14.382Z,90.63
2019-05-17T03:07:44.399Z,90.74
2019-05-17T03:10:23.995Z,90.79
2019-05-17T03:12:45.056Z,90.94
2019-05-17T03:15:14.715Z,90.86
2019-05-17T03:17:43.814Z,91.00
2019-05-17T03:20:13.902Z,90.98
2019-05-17T03:22:43.956Z,90.99
2019-05-17T03:25:14.338Z,90.90
2019-05-17T03:27:43.554Z,90.92
2019-05-17T03:30:17.270Z,90.98
2019-05-17T03:32:47.889Z,91.04
2019-05-17T03:35:17.675Z,91.08
2019-05-17T03:37:45.663Z,90.98
2019-05-17T03:40:35.203Z,90.98
2019-05-17T03:42:45.067Z,90.94
2019-05-17T03:45:14.310Z,90.81
2019-05-17T03:47:44.339Z,90.84
2019-05-17T03:50:14.006Z,90.84
2019-05-17T03:52:44.338Z,90.82
2019-05-17T03:55:13.919Z,90.85
2019-05-17T03:57:44.278Z,90.83
2019-05-17T04:00:14.115Z,90.86
2019-05-17T04:02:44.312Z,90.83
2019-05-17T04:05:13.445Z,90.82
2019-05-17T04:07:43.554Z,90.81
2019-05-17T04:10:15.070Z,90.77
2019-05-17T04:12:44.293Z,90.81
2019-05-17T04:15:14.125Z,90.80
2019-05-17T04:17:44.060Z,90.72
2019-05-17T04:20:14.051Z,90.74
2019-05-17T04:22:44.840Z,90.84
2019-05-17T04:25:14.354Z,90.77
2019-05-17T04:27:43.858Z,90.82
2019-05-17T04:30:13.709Z,90.81
2019-05-17T04:32:44.094Z,90.82
2019-05-17T04:35:13.506Z,90.75
2019-05-17T04:37:44.389Z,90.72
2019-05-17T04:40:14.463Z,90.81
2019-05-17T04:42:44.195Z,90.82
2019-05-17T04:45:13.865Z,90.83
2019-05-17T04:47:44.469Z,90.76
2019-05-17T04:50:13.822Z,90.82
2019-05-17T04:52:43.456Z,90.65
2019-05-17T04:55:13.824Z,90.62
2019-05-17T04:57:43.908Z,90.64
2019-05-17T05:00:13.915Z,90.77
2019-05-17T05:02:43.888Z,90.75
2019-05-17T05:05:14.606Z,90.73
2019-05-17T05:07:44.000Z,90.68
2019-05-17T05:10:13.995Z,90.73
2019-05-17T05:12:43.889Z,90.69
2019-05-17T05:15:13.949Z,90.75
2019-05-17T05:17:43.042Z,90.75
2019-05-17T05:20:13.590Z,90.71
2019-05-17T05:22:43.032Z,90.58
2019-05-17T05:25:12.720Z,90.56
2019-05-17T05:27:42.678Z,90.29
2019-05-17T05:30:12.703Z,90.21
2019-05-17T05:32:42.728Z,90.14
2019-05-17T05:35:12.652Z,90.01
2019-05-17T05:37:42.246Z,89.97
2019-05-17T05:40:12.681Z,89.84
2019-05-17T05:42:42.709Z,89.70
2019-05-17T05:45:13.137Z,89.38
2019-05-17T05:47:43.091Z,89.35
2019-05-17T05:50:13.268Z,89.36
2019-05-17T05:52:42.437Z,89.29
2019-05-17T05:55:12.459Z,89.11
2019-05-17T05:57:41.916Z,89.03
2019-05-17T06:00:13.223Z,88.79
2019-05-17T06:02:42.286Z,88.84
2019-05-17T06:05:14.861Z,88.72
2019-05-17T06:07:42.129Z,88.72
2019-05-17T06:10:12.872Z,88.82
2019-05-17T06:12:43.274Z,88.87
2019-05-17T06:15:13.306Z,88.85
2019-05-17T06:17:43.092Z,88.80
2019-05-17T06:20:12.369Z,88.63
2019-05-17T06:22:42.785Z,88.63
2019-05-17T06:25:15.134Z,88.59
2019-05-17T06:27:41.908Z,88.49
2019-05-17T06:30:12.859Z,88.32
2019-05-17T06:32:43.251Z,88.11
2019-05-17T06:35:13.420Z,87.88
2019-05-17T06:37:42.663Z,87.31
2019-05-17T06:40:13.127Z,86.92
2019-05-17T06:42:45.264Z,86.92
2019-05-17T06:45:12.579Z,86.55
2019-05-17T06:47:42.692Z,86.33
2019-05-17T06:50:14.241Z,86.32
2019-05-17T06:52:43.796Z,85.98
2019-05-17T06:55:13.022Z,85.67
2019-05-17T06:57:43.193Z,85.26
2019-05-17T07:00:19.825Z,85.35
2019-05-17T07:02:42.904Z,85.57
2019-05-17T07:05:13.327Z,85.34
2019-05-17T07:07:42.361Z,85.07
2019-05-17T07:10:12.333Z,84.52
2019-05-17T07:12:54.868Z,83.95
2019-05-17T07:15:12.510Z,82.97
2019-05-17T07:17:40.921Z,82.05
2019-05-17T07:20:10.654Z,81.60
2019-05-17T07:22:40.862Z,81.15
2019-05-17T07:25:10.967Z,80.49
2019-05-17T07:27:44.912Z,80.98
2019-05-17T07:30:11.660Z,81.08
2019-05-17T07:32:40.754Z,80.49
2019-05-17T07:35:11.143Z,80.17
2019-05-17T07:37:40.384Z,80.07
2019-05-17T07:40:10.915Z,79.83
2019-05-17T07:42:39.854Z,80.11
2019-05-17T07:45:10.061Z,80.68
2019-05-17T07:47:40.470Z,81.07
2019-05-17T07:50:11.207Z,81.35
2019-05-17T07:52:40.076Z,81.34
2019-05-17T07:55:10.979Z,81.70
2019-05-17T07:57:41.081Z,81.49
2019-05-17T08:00:10.945Z,81.31
2019-05-17T08:02:40.067Z,81.41
2019-05-17T08:05:10.013Z,81.04
2019-05-17T08:07:40.551Z,80.89
2019-05-17T08:10:10.993Z,80.51
2019-05-17T08:12:40.568Z,80.29
2019-05-17T08:15:11.236Z,80.00
2019-05-17T08:17:40.120Z,79.22
2019-05-17T08:20:10.724Z,78.86
2019-05-17T08:22:40.026Z,78.44
2019-05-17T08:25:10.323Z,77.28
2019-05-17T08:27:40.489Z,76.96
2019-05-17T08:30:10.710Z,77.05
2019-05-17T08:32:40.270Z,77.04
2019-05-17T08:35:11.201Z,76.82
2019-05-17T08:37:42.275Z,75.48
2019-05-17T08:40:11.142Z,74.66
2019-05-17T08:42:40.747Z,73.60
2019-05-17T08:45:09.969Z,74.20
2019-05-17T08:47:39.613Z,74.42
2019-05-17T08:50:11.490Z,74.60
2019-05-17T08:52:40.272Z,73.92
2019-05-17T08:55:10.072Z,73.31
2019-05-17T08:57:40.249Z,72.27
2019-05-17T09:00:10.615Z,72.22
2019-05-17T09:02:40.795Z,72.08
2019-05-17T09:05:10.452Z,72.85
2019-05-17T09:07:40.211Z,73.76
2019-05-17T09:10:10.406Z,74.44
2019-05-17T09:12:41.055Z,73.18
2019-05-17T09:15:10.350Z,72.01
2019-05-17T09:17:39.624Z,71.80
2019-05-17T09:20:10.662Z,71.26
2019-05-17T09:22:39.745Z,70.57
2019-05-17T09:25:12.424Z,71.05
2019-05-17T09:27:40.128Z,70.73
2019-05-17T09:30:09.940Z,70.96
2019-05-17T09:32:40.352Z,71.01
2019-05-17T09:35:09.993Z,70.57
2019-05-17T09:37:41.554Z,69.50
2019-05-17T09:40:09.434Z,66.86
2019-05-17T09:42:40.728Z,67.62
2019-05-17T09:45:09.724Z,66.59
2019-05-17T09:47:39.831Z,66.18
2019-05-17T09:50:09.946Z,66.03
2019-05-17T09:52:40.715Z,66.04
2019-05-17T09:55:09.928Z,66.34
2019-05-17T09:57:40.865Z,66.00
2019-05-17T10:00:10.126Z,65.04
2019-05-17T10:02:40.123Z,65.32
2019-05-17T10:05:10.642Z,64.61
2019-05-17T10:07:40.363Z,63.67
2019-05-17T10:10:10.829Z,62.81
2019-05-17T10:12:40.544Z,63.21
2019-05-17T10:15:10.158Z,63.10
2019-05-17T10:17:38.895Z,62.81
2019-05-17T10:20:10.831Z,62.58
2019-05-17T10:22:40.141Z,62.31
2019-05-17T10:25:09.974Z,59.96
2019-05-17T10:27:40.675Z,61.44
2019-05-17T10:30:10.450Z,60.79
2019-05-17T10:32:40.882Z,60.71
2019-05-17T10:35:10.420Z,60.40
2019-05-17T10:37:40.800Z,61.01
2019-05-17T10:40:11.216Z,60.95
2019-05-17T10:42:40.046Z,61.22
2019-05-17T10:45:11.015Z,58.93
2019-05-17T10:47:40.014Z,59.10
2019-05-17T10:50:10.931Z,58.57
2019-05-17T10:52:40.865Z,58.23
2019-05-17T10:55:10.768Z,58.02
2019-05-17T10:57:39.513Z,57.48
2019-05-17T11:00:10.105Z,57.29
2019-05-17T11:02:38.749Z,58.03
2019-05-17T11:05:07.442Z,59.36
2019-05-17T11:07:35.900Z,59.38
2019-05-17T11:10:06.638Z,59.34
2019-05-17T11:12:35.253Z,58.19
2019-05-17T11:15:11.827Z,58.49
2019-05-17T11:17:37.079Z,58.78
2019-05-17T11:20:09.090Z,58.65
2019-05-17T11:22:37.676Z,58.05
2019-05-17T11:25:08.174Z,57.49
2019-05-17T11:27:36.629Z,56.28
2019-05-17T11:30:06.462Z,55.77
2019-05-17T11:32:34.964Z,55.93
2019-05-17T11:35:04.299Z,55.88
2019-05-17T11:37:32.726Z,56.26
2019-05-17T11:40:01.233Z,56.41
2019-05-17T11:42:29.690Z,56.71
2019-05-17T11:44:58.126Z,56.33
2019-05-17T11:47:26.545Z,56.36
2019-05-17T11:50:00.363Z,56.50
2019-05-17T11:52:28.791Z,56.61
2019-05-17T11:54:57.217Z,57.52
2019-05-17T11:57:25.693Z,57.38
2019-05-17T11:59:55.807Z,56.75
2019-05-17T12:02:24.233Z,56.12
2019-05-17T12:04:52.734Z,54.42
2019-05-17T12:07:21.164Z,52.90
2019-05-17T12:09:49.675Z,53.83
2019-05-17T12:12:18.093Z,52.44
2019-05-17T12:14:46.525Z,51.74
2019-05-17T12:17:15.007Z,53.58
2019-05-17T12:19:43.462Z,53.34
2019-05-17T12:22:11.918Z,52.77
2019-05-17T12:24:40.686Z,51.59
2019-05-17T12:27:09.117Z,52.46
2019-05-17T12:29:37.555Z,53.39
2019-05-17T12:32:06.130Z,53.66
2019-05-17T12:34:34.535Z,53.39
2019-05-17T12:37:02.987Z,52.65
2019-05-17T12:39:31.722Z,52.50
2019-05-17T12:42:00.283Z,52.58
2019-05-17T12:44:28.755Z,52.68
2019-05-17T12:46:57.615Z,53.07
2019-05-17T12:49:26.051Z,52.50
2019-05-17T12:51:54.524Z,52.06
2019-05-17T12:54:23.053Z,51.91
2019-05-17T12:56:51.484Z,51.18
2019-05-17T12:59:19.905Z,50.80
2019-05-17T13:01:48.373Z,50.21
2019-05-17T13:04:16.975Z,51.18
2019-05-17T13:06:45.654Z,51.04
2019-05-17T13:09:14.120Z,50.69
2019-05-17T13:11:42.611Z,50.46
2019-05-17T13:14:11.034Z,50.96
2019-05-17T13:16:39.507Z,51.70
2019-05-17T13:19:07.929Z,52.05
2019-05-17T13:21:36.375Z,51.86
2019-05-17T13:24:05.137Z,51.67
2019-05-17T13:26:33.589Z,50.22
2019-05-17T13:29:01.992Z,49.78
2019-05-17T13:31:30.654Z,49.26
2019-05-17T13:33:59.214Z,49.18
2019-05-17T13:36:27.595Z,49.02
2019-05-17T13:38:56.125Z,49.28
2019-05-17T13:41:24.759Z,50.27
2019-05-17T13:43:53.262Z,50.55
2019-05-17T13:46:32.665Z,50.51
2019-05-17T13:48:51.864Z,50.65
2019-05-17T13:51:20.367Z,50.47
2019-05-17T13:53:49.086Z,50.99
2019-05-17T13:56:17.510Z,50.32
2019-05-17T13:58:46.013Z,49.01
2019-05-17T14:01:14.604Z,48.79
2019-05-17T14:03:43.082Z,48.66
2019-05-17T14:06:11.661Z,48.58
2019-05-17T14:08:40.389Z,48.65
2019-05-17T14:11:08.898Z,48.88
2019-05-17T14:13:37.354Z,49.95
2019-05-17T14:16:06.236Z,50.07
2019-05-17T14:18:34.843Z,50.44
2019-05-17T14:21:03.255Z,50.71
2019-05-17T14:23:31.724Z,50.53
2019-05-17T14:26:00.273Z,49.68
2019-05-17T14:28:28.669Z,49.97
2019-05-17T14:30:57.332Z,50.16
2019-05-17T14:33:25.774Z,49.95
2019-05-17T14:35:54.255Z,49.83
2019-05-17T14:38:22.929Z,49.59
2019-05-17T14:41:08.533Z,49.34
2019-05-17T14:43:21.638Z,49.18
2019-05-17T14:45:50.126Z,49.07
2019-05-17T14:48:18.558Z,48.60
2019-05-17T14:50:47.296Z,48.57
2019-05-17T14:53:15.756Z,48.37
2019-05-17T14:55:44.246Z,48.18
2019-05-17T14:58:12.721Z,47.74
2019-05-17T15:00:41.998Z,47.40
2019-05-17T15:03:10.422Z,47.27
2019-05-17T15:05:38.864Z,47.46
2019-05-17T15:08:07.402Z,47.64
2019-05-17T15:10:36.076Z,47.80
2019-05-17T15:13:04.509Z,48.04
2019-05-17T15:15:32.952Z,47.88
2019-05-17T15:18:01.387Z,47.56
2019-05-17T15:20:29.813Z,47.40
2019-05-17T15:22:58.290Z,47.28
2019-05-17T15:25:26.751Z,47.12
2019-05-17T15:27:55.174Z,46.76
2019-05-17T15:30:23.735Z,45.61
2019-05-17T15:32:52.379Z,44.94
2019-05-17T15:35:20.801Z,45.28
2019-05-17T15:37:49.383Z,44.67
2019-05-17T15:40:17.843Z,43.86
2019-05-17T15:42:46.449Z,43.62
2019-05-17T15:45:16.194Z,43.35
2019-05-17T15:47:44.821Z,42.89
2019-05-17T15:50:14.297Z,42.89
2019-05-17T15:52:42.935Z,42.13
2019-05-17T15:55:12.061Z,41.78
2019-05-17T15:57:40.502Z,41.27
2019-05-17T16:00:09.772Z,40.66
2019-05-17T16:02:38.261Z,39.96
2019-05-17T16:05:07.585Z,39.54
2019-05-17T16:07:36.195Z,39.09
2019-05-17T16:10:09.453Z,38.66
2019-05-17T16:12:38.215Z,38.18
2019-05-17T16:15:09.125Z,38.35
2019-05-17T16:17:37.575Z,38.50
2019-05-17T16:20:06.448Z,39.19
2019-05-17T16:22:34.955Z,39.86
2019-05-17T16:25:04.547Z,40.72
2019-05-17T16:27:32.977Z,41.66
2019-05-17T16:30:01.534Z,41.94
2019-05-17T16:32:30.190Z,42.32
2019-05-17T16:34:58.633Z,42.91
2019-05-17T16:37:27.183Z,43.51
2019-05-17T16:39:55.713Z,43.97
2019-05-17T16:42:24.153Z,44.48
2019-05-17T16:44:53.433Z,44.80
2019-05-17T16:47:21.855Z,45.01
2019-05-17T16:49:50.420Z,45.01
2019-05-17T16:52:19.500Z,44.90
2019-05-17T16:54:47.913Z,44.99
2019-05-17T16:57:16.335Z,45.16
2019-05-17T16:59:44.838Z,45.47
2019-05-17T17:02:14.219Z,45.81
2019-05-17T17:04:42.706Z,45.68
2019-05-17T17:07:11.643Z,45.87
2019-05-17T17:09:43.156Z,46.14
2019-05-17T17:12:12.180Z,46.17
2019-05-17T17:14:42.415Z,46.43
2019-05-17T17:17:13.058Z,46.76
2019-05-17T17:19:44.515Z,47.16
2019-05-17T17:22:14.288Z,47.31
2019-05-17T17:24:43.590Z,47.52
2019-05-17T17:27:12.687Z,47.61
2019-05-17T17:29:41.993Z,47.69
2019-05-17T17:32:21.177Z,48.07
2019-05-17T17:34:41.178Z,48.33
2019-05-17T17:37:10.159Z,48.37
2019-05-17T17:39:39.863Z,48.17
2019-05-17T17:42:08.951Z,47.72
2019-05-17T17:44:37.687Z,47.74
2019-05-17T17:47:08.131Z,47.69
2019-05-17T17:49:38.340Z,47.76
2019-05-17T17:52:08.829Z,47.76
2019-05-17T17:54:39.018Z,47.85
2019-05-17T17:57:08.474Z,48.06
2019-05-17T17:59:40.035Z,48.11
2019-05-17T18:02:11.644Z,48.44
2019-05-17T18:04:40.813Z,48.76
2019-05-17T18:07:10.029Z,49.17
2019-05-17T18:09:38.841Z,49.74
2019-05-17T18:12:11.155Z,50.34
2019-05-17T18:14:41.403Z,51.16
2019-05-17T18:17:10.699Z,51.72
2019-05-17T18:19:39.941Z,51.85
2019-05-17T18:22:09.226Z,52.06
2019-05-17T18:24:39.915Z,52.34
2019-05-17T18:27:08.949Z,53.15
2019-05-17T18:29:37.719Z,55.69
2019-05-17T18:32:06.867Z,57.13
2019-05-17T18:34:41.766Z,57.71
2019-05-17T18:37:13.283Z,58.76
2019-05-17T18:39:42.564Z,60.75
2019-05-17T18:42:11.392Z,61.19
2019-05-17T18:44:40.417Z,61.42
2019-05-17T18:47:11.327Z,62.88
2019-05-17T18:49:40.263Z,63.18
2019-05-17T18:52:09.537Z,64.00
2019-05-17T18:54:38.418Z,65.05
2019-05-17T18:57:07.835Z,65.29
2019-05-17T18:59:37.813Z,65.78
2019-05-17T19:02:06.504Z,66.84
2019-05-17T19:04:36.109Z,66.92
2019-05-17T19:07:05.205Z,67.29
2019-05-17T19:09:34.035Z,67.82
2019-05-17T19:12:02.584Z,68.47
2019-05-17T19:14:42.425Z,68.55
2019-05-17T19:17:01.569Z,69.17
2019-05-17T19:19:30.324Z,69.22
2019-05-17T19:21:59.181Z,69.85
2019-05-17T19:24:28.972Z,69.81
2019-05-17T19:26:58.236Z,69.85
2019-05-17T19:29:27.910Z,70.29
2019-05-17T19:31:57.013Z,71.20
2019-05-17T19:34:26.547Z,70.77
2019-05-17T19:36:55.896Z,71.15
2019-05-17T19:39:25.250Z,72.16
2019-05-17T19:41:54.641Z,72.26
2019-05-17T19:44:24.333Z,72.29
2019-05-17T19:46:53.337Z,73.16
2019-05-17T19:49:23.650Z,72.79
2019-05-17T19:51:52.903Z,73.07
2019-05-17T19:54:22.463Z,73.37
2019-05-17T19:56:53.299Z,73.71
2019-05-17T19:59:22.643Z,74.01
2019-05-17T20:01:55.605Z,74.91
2019-05-17T20:04:25.456Z,74.79
2019-05-17T20:06:54.834Z,75.73
2019-05-17T20:09:25.993Z,75.53
2019-05-17T20:11:57.198Z,75.69
2019-05-17T20:14:28.734Z,75.69
2019-05-17T20:16:58.765Z,76.08
2019-05-17T20:19:28.046Z,76.09
2019-05-17T20:21:58.755Z,76.22
2019-05-17T20:24:28.687Z,76.46
2019-05-17T20:26:57.778Z,76.54
2019-05-17T20:29:29.831Z,76.82
2019-05-17T20:31:59.839Z,76.77
2019-05-17T20:34:29.610Z,77.11
2019-05-17T20:37:00.279Z,77.16
2019-05-17T20:39:30.112Z,77.74
2019-05-17T20:41:59.408Z,77.78
2019-05-17T20:44:28.832Z,77.91
2019-05-17T20:46:59.987Z,77.90
2019-05-17T20:49:28.923Z,77.88
2019-05-17T20:51:57.732Z,78.28
2019-05-17T20:54:26.490Z,78.34
2019-05-17T20:56:55.087Z,78.14
2019-05-17T20:59:24.018Z,78.25
2019-05-17T21:01:52.648Z,78.88
2019-05-17T21:04:21.116Z,78.88
2019-05-17T21:06:49.658Z,79.05
2019-05-17T21:09:18.084Z,78.86
2019-05-17T21:11:46.988Z,78.92
2019-05-17T21:14:15.713Z,79.05
2019-05-17T21:16:44.154Z,79.02
2019-05-17T21:19:12.588Z,79.45
2019-05-17T21:21:41.143Z,79.23
2019-05-17T21:24:09.576Z,79.60
2019-05-17T21:26:38.010Z,79.49
2019-05-17T21:29:06.602Z,79.75
2019-05-17T21:31:35.230Z,79.80
2019-05-17T21:34:03.721Z,79.87
2019-05-17T21:36:32.247Z,79.92
2019-05-17T21:39:00.674Z,80.03
2019-05-17T21:41:29.195Z,80.16
2019-05-17T21:43:57.690Z,80.34
2019-05-17T21:46:26.114Z,80.23
2019-05-17T21:48:54.550Z,80.79
2019-05-17T21:51:23.339Z,80.71
2019-05-17T21:53:51.987Z,80.84
2019-05-17T21:56:20.411Z,81.09
2019-05-17T21:58:48.898Z,81.15
2019-05-17T22:01:20.918Z,81.79
2019-05-17T22:03:48.659Z,81.40
2019-05-17T22:06:17.700Z,81.72
2019-05-17T22:08:46.267Z,81.92
2019-05-17T22:11:14.873Z,81.89
2019-05-17T22:13:43.620Z,82.38
2019-05-17T22:16:19.723Z,82.08
2019-05-17T22:18:46.273Z,82.18
2019-05-17T22:21:15.789Z,82.42
2019-05-17T22:23:44.480Z,82.77
2019-05-17T22:26:15.098Z,82.87
2019-05-17T22:28:44.300Z,83.56
2019-05-17T22:31:13.635Z,83.54
2019-05-17T22:33:43.216Z,83.66
2019-05-17T22:36:12.927Z,83.77
2019-05-17T22:38:41.806Z,84.10
2019-05-17T22:41:10.611Z,83.93
2019-05-17T22:43:40.120Z,84.18
2019-05-17T22:46:10.492Z,83.94
2019-05-17T22:48:40.338Z,84.10
2019-05-17T22:51:09.432Z,84.04
2019-05-17T22:53:38.551Z,84.18
2019-05-17T22:56:07.625Z,84.26
2019-05-17T22:58:36.702Z,84.65
2019-05-17T23:01:05.138Z,84.59
2019-05-17T23:03:33.565Z,84.61
2019-05-17T23:06:02.198Z,84.52
2019-05-17T23:08:30.676Z,84.81
2019-05-17T23:10:59.053Z,84.49
2019-05-17T23:13:27.585Z,84.82
2019-05-17T23:16:03.013Z,84.73
2019-05-17T23:18:33.102Z,84.74
2019-05-17T23:21:01.913Z,84.82
2019-05-17T23:23:30.734Z,85.02
2019-05-17T23:25:59.322Z,85.47
2019-05-17T23:28:27.755Z,85.67
2019-05-17T23:30:56.196Z,85.69
2019-05-17T23:33:24.726Z,86.33
2019-05-17T23:35:53.238Z,86.49
2019-05-17T23:38:21.662Z,86.83
2019-05-17T23:40:50.964Z,86.61
2019-05-17T23:43:21.729Z,86.62
2019-05-17T23:45:50.514Z,87.22
2019-05-17T23:48:19.634Z,87.19
2019-05-17T23:50:48.052Z,87.64
2019-05-17T23:53:16.643Z,87.84
2019-05-17T23:55:45.106Z,87.78
2019-05-17T23:58:13.536Z,88.04
